Pagrindinis puslapis
METAR-TAF:

METAR-TAF

Oro uostai :

Grand Rapids, Mičiganas, Jungtinės Amerikos Valstijos

platuma: 42-52-51N, ilguma: 085-31-22W, Aukštis: 242 m

Dabartinis oras

Ataskaita buvo paskelbta 18 minutes, ne 03:53 UTC
Vėjas 4 kt iš Pietų
Temperatūra -8°C
Drėgmė 73%
Slėgis 1028 hPa
Matomumas: 16.1 km
Apsiniaukę ne aukštis 3600 ft
sniegas

METAR: KGRR 130353Z 18004KT 10SM -SN OVC036 M08/M12 A3036 RMK AO2 SNB51 SLP294 P0000 T10831117

Laikas: 23:11 (04:11 UTC)

Prognozė

Ataskaita buvo paskelbta 4 valandos ir 46 minutes, ne 23:25 UTC
Prognozė galioja nuo 13 metu 00 UTC su 13 metu 24 UTC
Vėjas 6 kt iš Vakarų
Matomumas: 10 km
Išsisklaidę debesys ne aukštis 3500 ft
Nuo 13 metu 0600 UTC
Vėjas 5 kt iš Pietų/Pietryčių
Matomumas: 10 km
Su prošvaistėmis ne aukštis 15000 ft
Nuo 13 metu 1600 UTC
Vėjas 12 kt iš Pietų
Matomumas: 10 km
Apsiniaukę ne aukštis 10000 ft

TAF: KGRR 122325Z 1300/1324 28006KT P6SM SCT035 FM130600 16005KT P6SM BKN150 FM131600 18012KT P6SM OVC100

Orai ataskaitas ir orų prognozės (METAR, TAF).

turimą stotys yra geltonos ir raudonos taškus žemėlapyje.

Perkelti pele per norėdami pamatyti stoties vardą.

Tada spustelėkite, norėdami matyti oro stebėjimo ir prognozės.

Norėdami pakeisti žemėlapį: spustelėkite ant žalios mygtukų su juodo kryžiaus žemyn,; žalią mygtuką su brūkšneliu, jei norite nutolinti; arba žalių rodyklių gretimoms žemėlapius.


METAR-TAF: